createdAt,value
2023-02-16T00:00:38.436Z,85.07
2023-02-16T00:03:05.032Z,79.32
2023-02-16T00:05:34.900Z,82.60
2023-02-16T00:08:02.177Z,89.93
2023-02-16T00:10:35.233Z,94.18
2023-02-16T00:13:24.604Z,95.57
2023-02-16T00:15:51.216Z,100.38
2023-02-16T00:18:20.775Z,102.65
2023-02-16T00:20:49.085Z,105.00
2023-02-16T00:23:15.744Z,106.32
2023-02-16T00:25:42.372Z,113.47
2023-02-16T00:28:15.945Z,114.07
2023-02-16T00:30:42.560Z,115.60
2023-02-16T00:33:20.868Z,123.18
2023-02-16T00:35:48.203Z,128.93
2023-02-16T00:38:15.020Z,131.68
2023-02-16T00:40:42.633Z,142.00
2023-02-16T00:43:22.721Z,238.63
2023-02-16T00:45:49.427Z,149.65
2023-02-16T00:48:16.308Z,156.13
2023-02-16T00:50:42.878Z,168.02
2023-02-16T00:53:10.499Z,169.30
2023-02-16T00:55:38.798Z,179.20
2023-02-16T00:58:30.567Z,184.40
2023-02-16T01:01:09.789Z,193.10
2023-02-16T01:03:37.421Z,196.07
2023-02-16T01:06:22.585Z,195.45
2023-02-16T01:11:34.155Z,166.25
2023-02-16T01:14:00.803Z,184.40
2023-02-16T01:16:38.569Z,200.10
2023-02-16T01:19:05.716Z,198.18
2023-02-16T01:21:33.522Z,203.07
2023-02-16T01:24:00.708Z,199.55
2023-02-16T01:26:27.426Z,204.38
2023-02-16T01:28:53.987Z,205.95
2023-02-16T01:31:20.664Z,196.55
2023-02-16T01:33:47.338Z,182.90
2023-02-16T01:36:26.902Z,176.20
2023-02-16T01:38:53.510Z,156.30
2023-02-16T01:41:57.552Z,157.00
2023-02-16T01:44:39.057Z,143.98
2023-02-16T01:47:13.009Z,158.00
2023-02-16T01:49:39.721Z,181.63
2023-02-16T01:52:19.355Z,180.43
2023-02-16T01:54:52.518Z,182.38
2023-02-16T01:57:39.708Z,177.43
2023-02-16T02:00:16.173Z,166.18
2023-02-16T02:02:54.836Z,168.80
2023-02-16T02:05:37.616Z,158.32
2023-02-16T02:08:16.185Z,147.98
2023-02-16T02:11:06.228Z,148.73
2023-02-16T02:13:38.045Z,149.35
2023-02-16T02:16:06.141Z,158.98
2023-02-16T02:18:33.316Z,152.50
2023-02-16T02:21:21.259Z,146.20
2023-02-16T02:24:25.029Z,151.35
2023-02-16T02:27:09.848Z,149.02
2023-02-16T02:29:59.863Z,155.20
2023-02-16T02:33:03.331Z,151.20
2023-02-16T02:35:51.294Z,154.93
2023-02-16T02:38:53.590Z,164.10
2023-02-16T02:41:49.180Z,145.45
2023-02-16T02:44:20.962Z,165.00
2023-02-16T02:46:48.788Z,150.63
2023-02-16T02:49:15.674Z,148.55
2023-02-16T02:51:42.196Z,148.25
2023-02-16T02:54:30.025Z,140.68
2023-02-16T02:57:17.543Z,136.77
2023-02-16T03:00:09.442Z,132.15
2023-02-16T03:02:37.286Z,134.45
2023-02-16T03:05:06.991Z,125.50
2023-02-16T03:07:47.889Z,139.10
2023-02-16T03:10:42.452Z,121.18
2023-02-16T03:13:25.960Z,128.05
2023-02-16T03:15:57.083Z,128.77
2023-02-16T03:18:44.870Z,130.68
2023-02-16T03:21:33.216Z,133.82
2023-02-16T03:24:21.603Z,127.40
2023-02-16T03:27:09.365Z,129.77
2023-02-16T03:29:38.478Z,116.90
2023-02-16T03:32:06.375Z,119.15
2023-02-16T03:34:36.267Z,114.55
2023-02-16T03:37:05.556Z,101.03
2023-02-16T03:39:32.724Z,97.20
2023-02-16T03:41:59.339Z,88.22
2023-02-16T03:44:25.970Z,85.72
2023-02-16T03:46:53.749Z,98.75
2023-02-16T03:49:21.465Z,102.95
2023-02-16T03:51:48.070Z,107.03
2023-02-16T03:54:14.688Z,104.43
2023-02-16T03:56:41.336Z,104.85
2023-02-16T03:59:08.050Z,101.25
2023-02-16T04:01:34.669Z,103.40
2023-02-16T04:04:01.298Z,98.68
2023-02-16T04:06:27.922Z,104.78
2023-02-16T04:08:54.750Z,106.60
2023-02-16T04:11:39.931Z,106.20
2023-02-16T04:14:06.564Z,102.65
2023-02-16T04:16:33.254Z,98.55
2023-02-16T04:18:59.868Z,96.15
2023-02-16T04:21:26.521Z,89.05
2023-02-16T04:23:53.149Z,93.32
2023-02-16T04:26:19.710Z,80.93
2023-02-16T04:28:46.396Z,80.97
2023-02-16T04:31:13.192Z,87.20
2023-02-16T04:33:40.020Z,89.85
2023-02-16T04:36:07.042Z,96.85
2023-02-16T04:38:33.592Z,92.88
2023-02-16T04:41:00.317Z,108.75
2023-02-16T04:43:27.018Z,110.88
2023-02-16T04:45:53.594Z,119.78
2023-02-16T04:48:20.183Z,115.35
2023-02-16T04:50:46.746Z,125.25
2023-02-16T04:53:13.374Z,115.40
2023-02-16T04:55:39.947Z,113.50
2023-02-16T04:58:06.566Z,115.40
2023-02-16T05:00:35.658Z,114.43
2023-02-16T05:03:03.127Z,114.93
2023-02-16T05:05:29.792Z,101.78
2023-02-16T05:07:56.349Z,106.90
2023-02-16T05:10:22.914Z,115.20
2023-02-16T05:13:08.036Z,110.40
2023-02-16T05:18:02.166Z,93.38
2023-02-16T05:20:47.299Z,102.78
2023-02-16T05:25:40.407Z,89.30
2023-02-16T05:28:07.008Z,95.18
2023-02-16T05:30:33.875Z,103.30
2023-02-16T05:33:00.538Z,121.60
2023-02-16T05:35:27.832Z,114.65
2023-02-16T05:37:54.373Z,110.60
2023-02-16T05:40:21.006Z,122.93
2023-02-16T05:42:47.558Z,133.40
2023-02-16T05:45:14.109Z,124.07
2023-02-16T05:47:40.624Z,116.75
2023-02-16T05:50:07.952Z,114.03
2023-02-16T05:52:34.485Z,109.95
2023-02-16T05:55:01.049Z,129.30
2023-02-16T05:57:27.600Z,134.48
2023-02-16T05:59:54.159Z,108.63
2023-02-16T06:02:20.806Z,110.07
2023-02-16T06:04:47.427Z,108.85
2023-02-16T06:07:15.022Z,105.25
2023-02-16T06:09:41.712Z,100.50
2023-02-16T06:12:08.354Z,97.43
2023-02-16T06:14:34.948Z,104.55
2023-02-16T06:17:01.591Z,109.20
2023-02-16T06:19:28.189Z,116.50
2023-02-16T06:21:54.804Z,100.47
2023-02-16T06:24:21.404Z,96.22
2023-02-16T06:26:47.952Z,100.78
2023-02-16T06:29:14.538Z,102.68
2023-02-16T06:31:41.247Z,107.97
2023-02-16T06:34:08.036Z,108.50
2023-02-16T06:36:34.672Z,110.72
2023-02-16T06:39:01.372Z,111.03
2023-02-16T06:41:40.063Z,115.50
2023-02-16T06:44:09.438Z,110.85
2023-02-16T06:46:36.205Z,107.78
2023-02-16T06:49:02.893Z,116.28
2023-02-16T06:51:29.835Z,116.32
2023-02-16T06:53:56.565Z,115.15
2023-02-16T06:56:23.558Z,110.95
2023-02-16T06:58:50.363Z,124.43
2023-02-16T07:01:22.985Z,127.32
2023-02-16T07:03:51.073Z,130.32
2023-02-16T07:06:18.398Z,125.90
2023-02-16T07:08:45.511Z,132.25
2023-02-16T07:11:12.585Z,136.27
2023-02-16T07:13:39.289Z,136.60
2023-02-16T07:16:07.549Z,143.55
2023-02-16T07:18:34.411Z,149.00
2023-02-16T07:21:01.303Z,155.27
2023-02-16T07:23:28.047Z,144.10
2023-02-16T07:25:54.683Z,140.38
2023-02-16T07:28:21.228Z,138.30
2023-02-16T07:30:47.868Z,150.02
2023-02-16T07:33:18.859Z,156.23
2023-02-16T07:35:45.448Z,156.68
2023-02-16T07:38:12.300Z,156.32
2023-02-16T07:40:39.124Z,179.40
2023-02-16T07:43:06.590Z,165.38
2023-02-16T07:45:34.018Z,170.30
2023-02-16T07:48:02.181Z,158.90
2023-02-16T07:50:28.768Z,155.73
2023-02-16T07:52:55.400Z,156.40
2023-02-16T07:55:22.026Z,161.77
2023-02-16T07:57:49.544Z,153.20
2023-02-16T08:00:16.635Z,155.15
2023-02-16T08:02:43.308Z,201.32
2023-02-16T08:05:10.065Z,166.23
2023-02-16T08:07:36.663Z,160.95
2023-02-16T08:10:03.264Z,156.63
2023-02-16T08:12:29.815Z,167.23
2023-02-16T08:14:56.407Z,146.43
2023-02-16T08:17:23.078Z,150.73
2023-02-16T08:19:50.406Z,151.98
2023-02-16T08:22:18.354Z,152.32
2023-02-16T08:24:45.113Z,160.00
2023-02-16T08:27:11.740Z,165.27
2023-02-16T08:29:38.508Z,175.35
2023-02-16T08:32:07.859Z,172.48
2023-02-16T08:34:35.511Z,171.27
2023-02-16T08:37:02.411Z,185.88
2023-02-16T08:39:31.400Z,189.65
2023-02-16T08:41:58.362Z,192.63
2023-02-16T08:44:25.918Z,204.38
2023-02-16T08:46:55.067Z,188.35
2023-02-16T08:49:24.108Z,184.77
2023-02-16T08:51:54.743Z,152.23
2023-02-16T08:54:33.325Z,142.80
2023-02-16T08:57:02.760Z,139.70
2023-02-16T08:59:29.862Z,101.70
2023-02-16T09:01:58.169Z,93.35
2023-02-16T09:04:25.834Z,77.15
2023-02-16T09:06:53.364Z,60.33
2023-02-16T09:09:20.654Z,58.15
2023-02-16T09:11:48.157Z,55.10
2023-02-16T09:14:17.269Z,58.53
2023-02-16T09:16:45.801Z,59.22
2023-02-16T09:19:19.315Z,56.33
2023-02-16T09:21:47.354Z,58.97
2023-02-16T09:24:13.960Z,60.03
2023-02-16T09:26:42.954Z,64.93
2023-02-16T09:29:12.400Z,62.28
2023-02-16T09:31:39.736Z,62.88
2023-02-16T09:34:17.889Z,56.42
2023-02-16T09:36:45.281Z,55.85
2023-02-16T09:39:12.335Z,57.47
2023-02-16T09:41:57.106Z,54.63
2023-02-16T09:44:42.252Z,54.80
2023-02-16T09:47:26.004Z,47.63
2023-02-16T09:49:56.890Z,51.42
2023-02-16T09:52:37.782Z,53.92
2023-02-16T09:55:16.330Z,52.83
2023-02-16T09:57:58.410Z,54.00
2023-02-16T10:00:33.867Z,55.83
2023-02-16T10:03:29.308Z,51.22
2023-02-16T10:08:31.290Z,49.42
2023-02-16T10:11:32.332Z,49.90
2023-02-16T10:14:06.454Z,52.42
2023-02-16T10:16:39.629Z,54.22
2023-02-16T10:19:21.469Z,55.22
2023-02-16T10:21:53.355Z,48.75
2023-02-16T10:24:20.446Z,50.05
2023-02-16T10:26:59.728Z,49.08
2023-02-16T10:29:26.971Z,49.83
2023-02-16T10:31:59.372Z,55.55
2023-02-16T10:34:50.386Z,54.95
2023-02-16T10:37:47.449Z,55.45
2023-02-16T10:40:30.228Z,51.40
2023-02-16T10:43:07.341Z,47.10
2023-02-16T10:45:55.259Z,44.10
2023-02-16T10:48:23.450Z,40.10
2023-02-16T10:50:50.133Z,39.47
2023-02-16T10:53:21.874Z,38.20
2023-02-16T10:55:48.412Z,40.72
2023-02-16T10:58:24.416Z,41.58
2023-02-16T11:01:00.961Z,38.90
2023-02-16T11:03:36.071Z,40.05
2023-02-16T11:06:25.524Z,42.40
2023-02-16T11:08:59.288Z,40.92
2023-02-16T11:11:27.970Z,35.17
2023-02-16T11:14:18.702Z,33.55
2023-02-16T11:16:46.630Z,34.88
2023-02-16T11:19:22.441Z,36.13
2023-02-16T11:21:55.936Z,33.38
2023-02-16T11:24:35.158Z,35.70
2023-02-16T11:27:06.247Z,35.35
2023-02-16T11:29:34.124Z,35.20
2023-02-16T11:32:06.442Z,36.97
2023-02-16T11:34:40.276Z,35.20
2023-02-16T11:37:25.051Z,36.20
2023-02-16T11:39:55.418Z,37.08
2023-02-16T11:42:44.330Z,36.63
2023-02-16T11:45:22.678Z,36.15
2023-02-16T11:47:55.987Z,36.03
2023-02-16T11:50:35.684Z,34.90
2023-02-16T11:53:14.843Z,36.55
2023-02-16T11:55:44.501Z,36.63
2023-02-16T11:58:24.665Z,35.85
2023-02-16T12:01:19.052Z,36.10
2023-02-16T12:04:03.635Z,36.88
2023-02-16T12:06:49.678Z,37.47
2023-02-16T12:09:43.656Z,36.28
2023-02-16T12:12:17.851Z,34.07
2023-02-16T12:19:51.591Z,32.72
2023-02-16T12:22:32.580Z,33.58
2023-02-16T12:25:07.932Z,33.47
2023-02-16T12:27:51.027Z,32.55
2023-02-16T12:30:33.997Z,32.40
2023-02-16T12:33:15.556Z,33.65
2023-02-16T12:35:59.752Z,30.40
2023-02-16T12:38:51.993Z,33.05
2023-02-16T12:41:37.703Z,32.70
2023-02-16T12:44:10.962Z,31.77
2023-02-16T12:46:46.877Z,32.07
2023-02-16T12:49:24.410Z,31.77
2023-02-16T12:51:57.377Z,30.42
2023-02-16T12:54:57.524Z,31.52
2023-02-16T12:57:30.791Z,30.15
2023-02-16T13:00:04.337Z,31.83
2023-02-16T13:02:43.443Z,32.20
2023-02-16T13:05:32.673Z,28.50
2023-02-16T13:08:17.684Z,29.75
2023-02-16T13:11:03.835Z,30.95
2023-02-16T13:13:34.412Z,28.52
2023-02-16T13:16:08.304Z,29.65
2023-02-16T13:18:44.391Z,32.15
2023-02-16T13:21:42.500Z,29.73
2023-02-16T13:24:18.484Z,28.95
2023-02-16T13:26:57.345Z,30.10
2023-02-16T13:29:47.962Z,30.33
2023-02-16T13:32:41.503Z,28.13
2023-02-16T13:35:30.062Z,26.10
2023-02-16T13:38:15.729Z,27.27
2023-02-16T13:41:06.579Z,26.58
2023-02-16T13:43:45.380Z,26.17
2023-02-16T13:46:30.719Z,29.92
2023-02-16T13:48:58.752Z,29.58
2023-02-16T13:51:29.235Z,26.45
2023-02-16T13:54:02.202Z,28.80
2023-02-16T13:56:29.752Z,26.23
2023-02-16T13:59:20.456Z,25.80
2023-02-16T14:01:50.672Z,27.33
2023-02-16T14:04:23.251Z,29.10
2023-02-16T14:07:15.041Z,27.38
2023-02-16T14:09:41.534Z,32.20
2023-02-16T14:12:14.470Z,28.50
2023-02-16T14:14:47.945Z,28.92
2023-02-16T14:17:24.482Z,30.45
2023-02-16T14:19:50.980Z,30.77
2023-02-16T14:22:20.177Z,28.20
2023-02-16T14:24:55.784Z,28.58
2023-02-16T14:27:58.384Z,32.97
2023-02-16T14:30:34.051Z,29.13
2023-02-16T14:33:12.631Z,29.38
2023-02-16T14:35:41.857Z,29.48
2023-02-16T14:38:18.789Z,29.95
2023-02-16T14:40:55.421Z,28.25
2023-02-16T14:43:41.800Z,30.40
2023-02-16T14:46:11.631Z,29.67
2023-02-16T14:48:58.516Z,30.13
2023-02-16T14:51:40.453Z,30.83
2023-02-16T14:54:41.288Z,31.25
2023-02-16T14:57:16.671Z,30.83
2023-02-16T15:00:02.744Z,31.65
2023-02-16T15:02:34.044Z,30.42
2023-02-16T15:05:21.495Z,30.83
2023-02-16T15:07:52.269Z,31.88
2023-02-16T15:10:27.930Z,32.53
2023-02-16T15:12:57.923Z,33.05
2023-02-16T15:15:42.519Z,34.42
2023-02-16T15:18:21.283Z,35.95
2023-02-16T15:20:53.134Z,38.78
2023-02-16T15:23:26.448Z,38.00
2023-02-16T15:26:03.159Z,38.67
2023-02-16T15:28:35.920Z,39.55
2023-02-16T15:31:06.790Z,39.83
2023-02-16T15:33:43.913Z,40.28
2023-02-16T15:36:14.367Z,38.67
2023-02-16T15:38:54.025Z,38.35
2023-02-16T15:41:35.526Z,39.97
2023-02-16T15:44:05.054Z,40.60
2023-02-16T15:46:40.353Z,42.72
2023-02-16T15:49:15.120Z,40.25
2023-02-16T15:51:43.249Z,45.60
2023-02-16T15:54:16.575Z,43.63
2023-02-16T15:56:48.647Z,42.72
2023-02-16T15:59:35.185Z,45.38
2023-02-16T16:02:11.988Z,43.28
2023-02-16T16:04:47.375Z,45.17
2023-02-16T16:07:24.996Z,44.90
2023-02-16T16:09:52.298Z,45.30
2023-02-16T16:12:20.735Z,45.38
2023-02-16T16:14:56.120Z,46.28
2023-02-16T16:17:31.672Z,44.30
2023-02-16T16:20:19.106Z,46.80
2023-02-16T16:22:45.988Z,47.50
2023-02-16T16:25:32.663Z,49.75
2023-02-16T16:28:00.315Z,49.95
2023-02-16T16:30:29.722Z,49.92
2023-02-16T16:33:05.047Z,49.05
2023-02-16T16:35:41.313Z,47.88
2023-02-16T16:38:33.288Z,46.55
2023-02-16T16:41:03.653Z,45.58
2023-02-16T16:43:34.878Z,46.05
2023-02-16T16:46:07.516Z,45.88
2023-02-16T16:48:37.289Z,44.55
2023-02-16T16:51:14.552Z,44.10
2023-02-16T16:53:50.281Z,44.50
2023-02-16T16:56:16.926Z,44.53
2023-02-16T16:58:43.520Z,43.10
2023-02-16T17:01:12.933Z,42.70
2023-02-16T17:03:39.465Z,43.88
2023-02-16T17:06:06.963Z,42.95
2023-02-16T17:08:33.616Z,43.72
2023-02-16T17:11:01.311Z,46.03
2023-02-16T17:13:28.009Z,44.17
2023-02-16T17:16:00.650Z,46.03
2023-02-16T17:18:27.238Z,48.78
2023-02-16T17:20:54.028Z,48.05
2023-02-16T17:23:22.234Z,49.22
2023-02-16T17:25:49.499Z,50.28
2023-02-16T17:28:18.934Z,54.08
2023-02-16T17:30:46.126Z,46.22
2023-02-16T17:33:12.759Z,49.13
2023-02-16T17:35:41.839Z,45.47
2023-02-16T17:38:13.669Z,45.17
2023-02-16T17:40:41.346Z,42.40
2023-02-16T17:43:13.608Z,43.95
2023-02-16T17:45:40.627Z,43.50
2023-02-16T17:48:07.390Z,42.85
2023-02-16T17:50:34.250Z,41.00
2023-02-16T17:53:00.809Z,39.15
2023-02-16T17:55:27.609Z,39.97
2023-02-16T17:57:55.808Z,42.63
2023-02-16T18:00:22.851Z,42.50
2023-02-16T18:02:49.545Z,39.20
2023-02-16T18:05:16.284Z,42.58
2023-02-16T18:07:42.900Z,41.22
2023-02-16T18:10:35.181Z,43.45
2023-02-16T18:13:02.231Z,42.13
2023-02-16T18:15:31.626Z,41.65
2023-02-16T18:17:59.618Z,44.50
2023-02-16T18:20:26.743Z,46.88
2023-02-16T18:22:54.053Z,43.42
2023-02-16T18:25:20.930Z,46.97
2023-02-16T18:27:47.508Z,53.08
2023-02-16T18:30:16.250Z,51.53
2023-02-16T18:32:43.034Z,54.13
2023-02-16T18:35:10.789Z,55.33
2023-02-16T18:37:38.276Z,51.45
2023-02-16T18:40:08.546Z,45.03
2023-02-16T18:42:35.948Z,42.45
2023-02-16T18:45:03.082Z,39.92
2023-02-16T18:47:29.877Z,41.42
2023-02-16T18:49:56.499Z,41.80
2023-02-16T18:52:23.774Z,45.88
2023-02-16T18:54:50.708Z,48.15
2023-02-16T18:57:17.622Z,43.03
2023-02-16T18:59:44.244Z,43.08
2023-02-16T19:02:12.185Z,40.03
2023-02-16T19:04:38.972Z,40.83
2023-02-16T19:07:05.679Z,41.15
2023-02-16T19:09:33.653Z,42.58
2023-02-16T19:12:00.294Z,40.33
2023-02-16T19:14:26.896Z,38.60
2023-02-16T19:16:53.504Z,38.22
2023-02-16T19:19:20.307Z,41.10
2023-02-16T19:21:46.906Z,40.20
2023-02-16T19:24:13.738Z,40.85
2023-02-16T19:26:40.976Z,40.65
2023-02-16T19:29:07.630Z,44.05
2023-02-16T19:31:35.569Z,42.55
2023-02-16T19:34:02.487Z,40.35
2023-02-16T19:36:31.986Z,40.78
2023-02-16T19:38:58.845Z,44.03
2023-02-16T19:41:37.508Z,40.20
2023-02-16T19:44:04.427Z,41.10
2023-02-16T19:46:32.888Z,39.38
2023-02-16T19:49:00.303Z,44.33
2023-02-16T19:51:27.076Z,44.20
2023-02-16T19:53:54.250Z,40.30
2023-02-16T19:56:24.398Z,43.15
2023-02-16T19:58:51.235Z,43.53
2023-02-16T20:01:21.395Z,43.45
2023-02-16T20:03:49.584Z,42.38
2023-02-16T20:06:19.398Z,44.35
2023-02-16T20:08:47.216Z,42.00
2023-02-16T20:11:14.779Z,43.60
2023-02-16T20:13:41.448Z,42.20
2023-02-16T20:16:10.091Z,39.40
2023-02-16T20:18:37.776Z,41.70
2023-02-16T20:21:07.246Z,42.28
2023-02-16T20:23:34.593Z,40.08
2023-02-16T20:26:06.216Z,41.70
2023-02-16T20:28:33.939Z,41.92
2023-02-16T20:31:01.041Z,41.65
2023-02-16T20:33:28.059Z,41.67
2023-02-16T20:35:54.654Z,41.85
2023-02-16T20:38:21.270Z,41.72
2023-02-16T20:40:47.872Z,41.47
2023-02-16T20:43:15.646Z,40.70
2023-02-16T20:45:43.041Z,38.88
2023-02-16T20:48:10.544Z,41.25
2023-02-16T20:50:37.448Z,40.80
2023-02-16T20:53:04.499Z,39.30
2023-02-16T20:55:31.951Z,40.35
2023-02-16T20:58:00.022Z,43.40
2023-02-16T21:00:27.702Z,40.70
2023-02-16T21:02:54.476Z,42.35
2023-02-16T21:05:22.478Z,43.75
2023-02-16T21:07:49.986Z,43.22
2023-02-16T21:10:16.744Z,40.40
2023-02-16T21:12:43.386Z,46.30
2023-02-16T21:15:10.243Z,48.15
2023-02-16T21:17:37.418Z,45.25
2023-02-16T21:20:06.781Z,43.47
2023-02-16T21:22:33.584Z,42.90
2023-02-16T21:25:01.313Z,40.80
2023-02-16T21:27:27.940Z,42.25
2023-02-16T21:29:54.557Z,41.15
2023-02-16T21:32:21.145Z,40.90
2023-02-16T21:34:47.735Z,42.42
2023-02-16T21:37:14.366Z,40.58
2023-02-16T21:39:59.288Z,40.67
2023-02-16T21:42:25.892Z,38.60
2023-02-16T21:45:12.383Z,39.83
2023-02-16T21:48:02.537Z,36.10
2023-02-16T21:50:31.124Z,36.20
2023-02-16T21:52:59.779Z,37.47
2023-02-16T21:55:46.157Z,37.53
2023-02-16T21:58:12.727Z,36.50
2023-02-16T22:00:39.467Z,38.92
2023-02-16T22:03:06.347Z,39.30
2023-02-16T22:05:34.793Z,41.30
2023-02-16T22:08:02.190Z,37.55
2023-02-16T22:10:29.184Z,40.85
2023-02-16T22:12:57.245Z,41.15
2023-02-16T22:15:24.140Z,41.45
2023-02-16T22:17:50.660Z,39.60
2023-02-16T22:20:19.022Z,40.13
2023-02-16T22:22:45.642Z,39.63
2023-02-16T22:25:13.712Z,41.38
2023-02-16T22:27:40.820Z,39.15
2023-02-16T22:30:08.239Z,40.22
2023-02-16T22:32:34.945Z,41.22
2023-02-16T22:35:01.674Z,41.38
2023-02-16T22:37:28.315Z,41.20
2023-02-16T22:39:55.236Z,41.40
2023-02-16T22:42:22.657Z,41.85
2023-02-16T22:44:49.228Z,37.50
2023-02-16T22:47:15.804Z,39.80
2023-02-16T22:49:42.393Z,38.80
2023-02-16T22:52:11.633Z,39.25
2023-02-16T22:54:38.705Z,38.75
2023-02-16T22:57:07.189Z,37.40
2023-02-16T22:59:34.010Z,39.53
2023-02-16T23:02:00.636Z,37.78
2023-02-16T23:04:27.291Z,39.05
2023-02-16T23:06:53.881Z,40.75
2023-02-16T23:09:22.051Z,37.55
2023-02-16T23:11:49.517Z,38.78
2023-02-16T23:14:16.768Z,41.53
2023-02-16T23:16:45.431Z,40.85
2023-02-16T23:19:17.606Z,41.08
2023-02-16T23:21:44.854Z,39.22
2023-02-16T23:24:17.565Z,38.80
2023-02-16T23:26:44.467Z,38.45
2023-02-16T23:29:11.384Z,40.78
2023-02-16T23:31:40.455Z,38.33
2023-02-16T23:34:07.991Z,38.97
2023-02-16T23:36:36.480Z,38.88
2023-02-16T23:39:07.050Z,40.75
2023-02-16T23:41:33.767Z,43.15
2023-02-16T23:44:01.291Z,45.22
2023-02-16T23:46:28.812Z,42.30
2023-02-16T23:48:55.537Z,41.78
2023-02-16T23:51:22.480Z,42.60
2023-02-16T23:53:49.477Z,42.30
2023-02-16T23:56:21.926Z,43.00
2023-02-16T23:58:49.418Z,44.83
